Flight Track Log - Related Links

Times and Time Zones

All times are in EDT time to prevent confusion due to time zone crossing. See the CBJ5166 flight status page for this flight to view local times or setup timezone preferences in your user account.

Time Position Orientation Groundspeed Altitude Reporting Facility
EDT Latitude Longitude Course Direction KTS MPH feet Rate Location/Type
01:14AM 26.4264 100.6866 123° Southeast  Level Estimated
01:15AM 26.3902 100.7494 123° Southeast  Level Estimated
01:16AM 26.3539 100.8122 123° Southeast  Level Estimated
01:17AM 26.3176 100.8749 123° Southeast  Level Estimated
01:18AM 26.2813 100.9376 123° Southeast  Level Estimated
01:19AM 26.2450 101.0003 123° Southeast  Level Estimated
01:20AM 26.2086 101.0629 123° Southeast  Level Estimated
01:21AM 26.1722 101.1254 123° Southeast  Level Estimated
01:22AM 26.1358 101.1880 123° Southeast  Level Estimated
01:23AM 26.0994 101.2505 123° Southeast  Level Estimated
01:24AM 26.0629 101.3129 123° Southeast  Level Estimated
01:25AM 26.0264 101.3754 123° Southeast  Level Estimated
01:26AM 25.9899 101.4377 123° Southeast  Level Estimated
01:27AM 25.9533 101.5001 123° Southeast  Level Estimated
01:28AM 25.9168 101.5624 123° Southeast  Level Estimated
01:29AM 25.8802 101.6246 123° Southeast  Level Estimated
01:30AM 25.8435 101.6869 123° Southeast  Level Estimated
01:31AM 25.8069 101.7490 123° Southeast  Level Estimated
01:32AM 25.7702 101.8112 123° Southeast  Level Estimated
01:33AM 25.7335 101.8733 123° Southeast  Level Estimated
01:34AM 25.6968 101.9354 123° Southeast  Level Estimated
01:35AM 25.6600 101.9974 123° Southeast  Level Estimated
01:36AM 25.6232 102.0594 123° Southeast  Level Estimated
01:37AM 25.5864 102.1214 123° Southeast  Level Estimated
01:38AM 25.5496 102.1833 123° Southeast  Level Estimated
01:39AM 25.5127 102.2451 123° Southeast  Level Estimated
01:40AM 25.4758 102.3070 123° Southeast  Level Estimated
01:41AM 25.4389 102.3688 123° Southeast  Level Estimated
01:42AM 25.4019 102.4306 124° Southeast  Level Estimated
01:43AM 25.3650 102.4923 124° Southeast  Level Estimated
01:44AM 25.3280 102.5540 124° Southeast  Level Estimated
01:45AM 25.2910 102.6156 124° Southeast  Level Estimated
01:46AM 25.2539 102.6772 124° Southeast  Level Estimated
01:47AM 25.2168 102.7388 124° Southeast  Level Estimated
01:48AM 25.1798 102.8004 124° Southeast  Level Estimated
01:49AM 25.1426 102.8619 124° Southeast  Level Estimated
01:50AM 25.1055 102.9233 124° Southeast  Level Estimated
01:51AM 25.1019 102.9292 124° Southeast  Level Estimated
01:52AM 25.1019 102.9292 North  Level Estimated
01:53AM 25.1019 102.9292 North  Level Estimated
01:54AM 25.1019 102.9292 North  Level Estimated
01:55AM 25.1019 102.9292 North  Level Estimated
01:56AM 25.1019 102.9292 North  Level Estimated
01:57AM 25.1019 102.9292 North  Level Estimated

Login

Don't have an account? Register now (free) for customized features, flight alerts, and more!